createdAt,value
2023-02-26T00:01:17.755Z,11.20
2023-02-26T00:03:44.678Z,11.10
2023-02-26T00:06:12.079Z,11.00
2023-02-26T00:08:38.845Z,10.90
2023-02-26T00:11:09.401Z,10.80
2023-02-26T00:13:38.283Z,10.80
2023-02-26T00:16:13.162Z,10.80
2023-02-26T00:18:40.214Z,10.70
2023-02-26T00:21:07.569Z,10.70
2023-02-26T00:23:34.716Z,10.80
2023-02-26T00:26:01.536Z,10.80
2023-02-26T00:28:28.435Z,10.80
2023-02-26T00:30:55.516Z,10.80
2023-02-26T00:33:22.564Z,10.80
2023-02-26T00:35:56.332Z,10.80
2023-02-26T00:38:23.632Z,10.80
2023-02-26T00:40:53.680Z,10.90
2023-02-26T00:43:24.423Z,10.90
2023-02-26T00:46:07.733Z,10.90
2023-02-26T00:48:40.729Z,10.90
2023-02-26T00:51:26.278Z,10.90
2023-02-26T00:54:13.116Z,10.80
2023-02-26T00:56:39.753Z,10.70
2023-02-26T00:59:06.420Z,10.70
2023-02-26T01:01:33.187Z,10.70
2023-02-26T01:04:00.389Z,10.60
2023-02-26T01:06:33.907Z,10.70
2023-02-26T01:09:08.572Z,10.80
2023-02-26T01:11:36.789Z,10.70
2023-02-26T01:14:04.858Z,10.70
2023-02-26T01:16:38.233Z,10.50
2023-02-26T01:19:38.841Z,10.40
2023-02-26T01:22:35.985Z,10.30
2023-02-26T01:25:07.255Z,10.30
2023-02-26T01:27:34.554Z,10.30
2023-02-26T01:30:01.605Z,10.20
2023-02-26T01:32:35.974Z,10.10
2023-02-26T01:35:32.099Z,10.10
2023-02-26T01:38:22.149Z,10.00
2023-02-26T01:41:07.875Z,9.90
2023-02-26T01:43:54.847Z,9.90
2023-02-26T01:46:43.504Z,9.90
2023-02-26T01:49:15.959Z,9.90
2023-02-26T01:51:52.065Z,9.80
2023-02-26T01:54:24.658Z,9.70
2023-02-26T01:56:56.920Z,9.70
2023-02-26T01:59:26.478Z,9.70
2023-02-26T02:01:56.268Z,9.70
2023-02-26T02:04:24.642Z,9.60
2023-02-26T02:06:52.499Z,9.60
2023-02-26T02:09:19.652Z,9.50
2023-02-26T02:12:08.009Z,9.50
2023-02-26T02:14:52.649Z,9.50
2023-02-26T02:17:54.171Z,9.60
2023-02-26T02:20:42.211Z,9.50
2023-02-26T02:23:13.521Z,9.40
2023-02-26T02:25:58.709Z,9.30
2023-02-26T02:29:01.369Z,9.20
2023-02-26T02:31:43.379Z,9.20
2023-02-26T02:34:18.543Z,9.20
2023-02-26T02:36:49.467Z,9.20
2023-02-26T02:39:47.825Z,9.00
2023-02-26T02:42:14.452Z,9.10
2023-02-26T02:44:46.528Z,9.10
2023-02-26T02:47:18.425Z,9.00
2023-02-26T02:49:51.814Z,9.00
2023-02-26T02:52:42.617Z,9.00
2023-02-26T02:55:19.598Z,8.90
2023-02-26T02:58:04.089Z,8.90
2023-02-26T03:00:35.376Z,9.00
2023-02-26T03:03:24.997Z,8.90
2023-02-26T03:05:51.978Z,8.90
2023-02-26T03:08:22.928Z,8.90
2023-02-26T03:10:49.965Z,8.80
2023-02-26T03:13:19.457Z,8.90
2023-02-26T03:16:14.237Z,8.80
2023-02-26T03:19:12.163Z,8.70
2023-02-26T03:22:08.294Z,8.80
2023-02-26T03:24:47.519Z,8.80
2023-02-26T03:27:24.349Z,8.70
2023-02-26T03:30:00.200Z,8.90
2023-02-26T03:32:50.318Z,8.90
2023-02-26T03:35:26.793Z,8.80
2023-02-26T03:37:58.431Z,8.80
2023-02-26T03:40:30.742Z,8.80
2023-02-26T03:43:06.529Z,8.80
2023-02-26T03:45:39.536Z,8.70
2023-02-26T03:48:09.350Z,8.90
2023-02-26T03:50:44.155Z,8.90
2023-02-26T03:53:13.894Z,9.00
2023-02-26T03:56:04.862Z,8.80
2023-02-26T03:58:31.781Z,8.70
2023-02-26T04:01:07.637Z,8.60
2023-02-26T04:03:42.868Z,8.50
2023-02-26T04:06:10.039Z,8.40
2023-02-26T04:08:37.100Z,8.50
2023-02-26T04:11:17.519Z,8.50
2023-02-26T04:13:44.972Z,8.50
2023-02-26T04:16:11.915Z,8.40
2023-02-26T04:18:39.279Z,8.40
2023-02-26T04:21:06.215Z,8.40
2023-02-26T04:23:33.524Z,8.50
2023-02-26T04:26:00.355Z,8.50
2023-02-26T04:28:27.128Z,8.40
2023-02-26T04:30:53.948Z,8.30
2023-02-26T04:33:20.836Z,8.40
2023-02-26T04:35:47.601Z,8.30
2023-02-26T04:38:14.263Z,8.30
2023-02-26T04:40:40.960Z,8.30
2023-02-26T04:43:07.632Z,8.40
2023-02-26T04:45:34.394Z,8.50
2023-02-26T04:48:01.157Z,8.40
2023-02-26T04:50:28.093Z,8.40
2023-02-26T04:52:54.978Z,8.60
2023-02-26T04:55:21.763Z,8.70
2023-02-26T04:57:48.522Z,8.80
2023-02-26T05:00:15.955Z,8.90
2023-02-26T05:02:42.901Z,9.00
2023-02-26T05:05:09.782Z,9.00
2023-02-26T05:07:36.560Z,9.00
2023-02-26T05:10:05.467Z,9.00
2023-02-26T05:12:32.206Z,9.00
2023-02-26T05:14:59.062Z,9.10
2023-02-26T05:17:25.819Z,9.20
2023-02-26T05:19:52.528Z,9.20
2023-02-26T05:22:19.319Z,9.30
2023-02-26T05:24:46.233Z,9.20
2023-02-26T05:27:13.260Z,9.20
2023-02-26T05:29:42.112Z,9.20
2023-02-26T05:32:08.882Z,9.20
2023-02-26T05:34:35.581Z,9.30
2023-02-26T05:37:02.895Z,9.40
2023-02-26T05:39:29.673Z,9.30
2023-02-26T05:41:56.951Z,9.30
2023-02-26T05:44:24.040Z,9.10
2023-02-26T05:46:50.771Z,9.00
2023-02-26T05:49:17.501Z,9.00
2023-02-26T05:51:44.355Z,9.10
2023-02-26T05:54:11.445Z,8.90
2023-02-26T05:56:38.175Z,9.00
2023-02-26T05:59:05.101Z,9.10
2023-02-26T06:01:31.912Z,9.10
2023-02-26T06:03:58.603Z,8.90
2023-02-26T06:06:27.067Z,9.00
2023-02-26T06:08:54.625Z,9.00
2023-02-26T06:11:21.411Z,8.90
2023-02-26T06:13:48.313Z,8.90
2023-02-26T06:16:15.372Z,8.90
2023-02-26T06:18:42.072Z,9.00
2023-02-26T06:21:09.390Z,8.90
2023-02-26T06:23:36.426Z,8.90
2023-02-26T06:26:03.307Z,8.90
2023-02-26T06:28:30.089Z,8.90
2023-02-26T06:30:57.144Z,8.80
2023-02-26T06:33:24.313Z,8.80
2023-02-26T06:35:51.562Z,8.80
2023-02-26T06:38:19.115Z,8.60
2023-02-26T06:40:47.833Z,8.50
2023-02-26T06:43:14.618Z,8.60
2023-02-26T06:45:41.468Z,8.50
2023-02-26T06:48:08.317Z,8.30
2023-02-26T06:50:34.982Z,8.40
2023-02-26T06:53:01.828Z,8.30
2023-02-26T06:55:28.660Z,8.30
2023-02-26T06:57:56.541Z,8.30
2023-02-26T07:00:24.423Z,8.30
2023-02-26T07:02:53.046Z,8.30
2023-02-26T07:05:19.839Z,8.20
2023-02-26T07:07:46.631Z,8.10
2023-02-26T07:10:14.199Z,8.10
2023-02-26T07:12:41.019Z,8.10
2023-02-26T07:15:08.555Z,8.10
2023-02-26T07:17:35.241Z,8.00
2023-02-26T07:20:06.476Z,8.00
2023-02-26T07:22:33.968Z,8.00
2023-02-26T07:25:00.785Z,7.90
2023-02-26T07:27:27.982Z,7.80
2023-02-26T07:29:55.018Z,7.90
2023-02-26T07:32:22.260Z,7.80
2023-02-26T07:34:48.971Z,8.00
2023-02-26T07:37:15.821Z,7.90
2023-02-26T07:39:42.545Z,7.90
2023-02-26T07:42:09.440Z,7.90
2023-02-26T07:44:36.272Z,7.70
2023-02-26T07:47:03.508Z,7.70
2023-02-26T07:49:30.391Z,7.80
2023-02-26T07:51:57.265Z,7.80
2023-02-26T07:54:24.088Z,7.80
2023-02-26T07:56:50.821Z,7.80
2023-02-26T07:59:17.709Z,7.70
2023-02-26T08:01:44.593Z,7.50
2023-02-26T08:04:11.538Z,7.50
2023-02-26T08:06:38.362Z,7.30
2023-02-26T08:09:05.474Z,7.30
2023-02-26T08:11:35.688Z,7.40
2023-02-26T08:14:03.160Z,7.40
2023-02-26T08:16:29.770Z,7.40
2023-02-26T08:18:56.459Z,7.40
2023-02-26T08:21:23.721Z,7.50
2023-02-26T08:23:50.750Z,7.50
2023-02-26T08:26:17.527Z,7.40
2023-02-26T08:28:44.340Z,7.40
2023-02-26T08:31:11.247Z,7.40
2023-02-26T08:33:38.098Z,7.30
2023-02-26T08:36:05.434Z,7.30
2023-02-26T08:38:32.345Z,7.40
2023-02-26T08:40:59.084Z,7.50
2023-02-26T08:43:26.201Z,7.40
2023-02-26T08:45:54.696Z,7.50
2023-02-26T08:48:21.811Z,7.50
2023-02-26T08:50:49.210Z,7.50
2023-02-26T08:53:16.257Z,7.50
2023-02-26T08:55:44.902Z,7.40
2023-02-26T08:58:11.740Z,7.50
2023-02-26T09:00:38.498Z,7.50
2023-02-26T09:03:05.256Z,7.60
2023-02-26T09:05:32.156Z,7.70
2023-02-26T09:07:58.862Z,7.80
2023-02-26T09:10:25.708Z,7.80
2023-02-26T09:12:52.744Z,7.80
2023-02-26T09:15:20.117Z,7.80
2023-02-26T09:17:47.999Z,7.80
2023-02-26T09:20:16.038Z,7.70
2023-02-26T09:22:42.799Z,7.70
2023-02-26T09:25:10.269Z,7.70
2023-02-26T09:27:37.153Z,7.80
2023-02-26T09:30:05.594Z,7.80
2023-02-26T09:32:32.517Z,7.80
2023-02-26T09:34:59.405Z,7.70
2023-02-26T09:37:26.271Z,7.70
2023-02-26T09:39:54.876Z,7.70
2023-02-26T09:42:46.443Z,7.80
2023-02-26T09:45:26.257Z,7.70
2023-02-26T09:47:55.161Z,7.60
2023-02-26T09:50:24.329Z,7.70
2023-02-26T09:53:00.251Z,7.70
2023-02-26T09:55:35.257Z,7.60
2023-02-26T09:58:11.542Z,7.60
2023-02-26T10:00:48.048Z,7.70
2023-02-26T10:03:27.879Z,7.70
2023-02-26T10:06:16.894Z,7.80
2023-02-26T10:09:06.870Z,7.80
2023-02-26T10:11:56.270Z,7.80
2023-02-26T10:14:50.854Z,7.80
2023-02-26T10:17:46.888Z,7.80
2023-02-26T10:20:22.893Z,7.80
2023-02-26T10:23:12.885Z,7.80
2023-02-26T10:25:47.765Z,7.70
2023-02-26T10:28:39.873Z,7.80
2023-02-26T10:31:13.174Z,7.80
2023-02-26T10:34:07.944Z,7.80
2023-02-26T10:37:03.634Z,7.80
2023-02-26T10:39:47.566Z,7.70
2023-02-26T10:42:22.517Z,7.60
2023-02-26T10:45:15.629Z,7.60
2023-02-26T10:47:55.511Z,7.70
2023-02-26T10:50:23.673Z,7.70
2023-02-26T10:52:51.984Z,7.70
2023-02-26T10:55:30.761Z,7.60
2023-02-26T10:58:07.105Z,7.50
2023-02-26T11:00:35.546Z,7.60
2023-02-26T11:03:05.011Z,7.60
2023-02-26T11:05:34.001Z,7.60
2023-02-26T11:08:05.068Z,7.70
2023-02-26T11:10:53.702Z,7.60
2023-02-26T11:13:26.397Z,7.70
2023-02-26T11:15:55.784Z,7.70
2023-02-26T11:18:31.380Z,7.60
2023-02-26T11:20:59.413Z,7.60
2023-02-26T11:23:30.571Z,7.70
2023-02-26T11:26:06.586Z,7.70
2023-02-26T11:28:55.264Z,7.70
2023-02-26T11:31:25.046Z,7.90
2023-02-26T11:33:57.408Z,8.00
2023-02-26T11:36:28.972Z,8.10
2023-02-26T11:39:07.202Z,8.10
2023-02-26T11:41:39.460Z,8.10
2023-02-26T11:44:11.599Z,8.20
2023-02-26T11:46:46.184Z,8.30
2023-02-26T11:49:21.756Z,8.40
2023-02-26T11:51:49.494Z,8.50
2023-02-26T11:54:24.972Z,8.50
2023-02-26T11:56:51.730Z,8.40
2023-02-26T11:59:24.930Z,8.20
2023-02-26T12:01:53.364Z,8.00
2023-02-26T12:04:23.110Z,7.80
2023-02-26T12:06:53.313Z,7.70
2023-02-26T12:09:21.215Z,7.50
2023-02-26T12:11:55.360Z,7.40
2023-02-26T12:14:52.553Z,7.40
2023-02-26T12:17:26.310Z,7.20
2023-02-26T12:20:15.320Z,7.10
2023-02-26T12:23:09.861Z,7.10
2023-02-26T12:26:00.169Z,7.10
2023-02-26T12:28:41.662Z,7.10
2023-02-26T12:31:27.591Z,7.00
2023-02-26T12:34:14.764Z,7.00
2023-02-26T12:36:58.341Z,7.10
2023-02-26T12:40:06.513Z,7.10
2023-02-26T12:42:54.858Z,7.00
2023-02-26T12:45:24.526Z,7.00
2023-02-26T12:48:10.041Z,7.00
2023-02-26T12:50:47.188Z,7.00
2023-02-26T12:53:50.676Z,7.10
2023-02-26T12:56:49.272Z,7.30
2023-02-26T12:59:28.351Z,7.30
2023-02-26T13:02:13.434Z,7.30
2023-02-26T13:05:18.343Z,7.30
2023-02-26T13:07:56.621Z,7.40
2023-02-26T13:10:28.153Z,7.30
2023-02-26T13:13:08.878Z,7.30
2023-02-26T13:15:58.217Z,7.30
2023-02-26T13:18:36.417Z,7.40
2023-02-26T13:21:18.083Z,7.40
2023-02-26T13:23:53.088Z,7.50
2023-02-26T13:26:21.966Z,7.50
2023-02-26T13:28:58.671Z,7.50
2023-02-26T13:31:55.609Z,7.60
2023-02-26T13:34:38.570Z,7.60
2023-02-26T13:37:06.084Z,7.70
2023-02-26T13:39:41.558Z,7.70
2023-02-26T13:42:33.408Z,7.60
2023-02-26T13:45:14.996Z,7.70
2023-02-26T13:48:06.127Z,7.70
2023-02-26T13:50:50.778Z,7.70
2023-02-26T13:53:33.714Z,7.60
2023-02-26T13:56:43.961Z,7.60
2023-02-26T13:59:15.129Z,7.70
2023-02-26T14:01:47.302Z,7.80
2023-02-26T14:04:20.197Z,7.70
2023-02-26T14:06:48.873Z,7.80
2023-02-26T14:09:25.883Z,7.90
2023-02-26T14:11:55.665Z,8.00
2023-02-26T14:14:22.297Z,8.10
2023-02-26T14:16:53.948Z,8.20
2023-02-26T14:19:40.837Z,8.20
2023-02-26T14:22:20.211Z,8.20
2023-02-26T14:25:10.306Z,8.10
2023-02-26T14:27:43.066Z,8.30
2023-02-26T14:30:09.706Z,8.20
2023-02-26T14:32:54.292Z,8.20
2023-02-26T14:35:27.874Z,8.10
2023-02-26T14:38:21.467Z,8.10
2023-02-26T14:40:56.196Z,8.30
2023-02-26T14:43:36.230Z,8.20
2023-02-26T14:46:05.136Z,8.20
2023-02-26T14:48:33.386Z,8.30
2023-02-26T14:51:13.191Z,8.10
2023-02-26T14:54:04.678Z,8.10
2023-02-26T14:57:01.777Z,8.30
2023-02-26T14:59:39.753Z,8.20
2023-02-26T15:02:09.424Z,8.20
2023-02-26T15:04:57.285Z,8.20
2023-02-26T15:07:54.394Z,8.20
2023-02-26T15:10:41.445Z,8.20
2023-02-26T15:13:22.738Z,8.20
2023-02-26T15:15:55.534Z,8.20
2023-02-26T15:18:59.866Z,8.10
2023-02-26T15:21:52.854Z,8.00
2023-02-26T15:24:20.437Z,8.00
2023-02-26T15:26:52.669Z,7.80
2023-02-26T15:29:25.475Z,7.80
2023-02-26T15:32:03.456Z,7.70
2023-02-26T15:34:30.799Z,7.60
2023-02-26T15:36:58.291Z,7.60
2023-02-26T15:39:25.770Z,7.60
2023-02-26T15:41:54.422Z,7.40
2023-02-26T15:44:32.582Z,7.40
2023-02-26T15:47:03.738Z,7.10
2023-02-26T15:49:38.007Z,7.10
2023-02-26T15:52:06.970Z,7.00
2023-02-26T15:54:40.030Z,6.80
2023-02-26T15:57:08.614Z,6.80
2023-02-26T15:59:42.303Z,6.60
2023-02-26T16:02:15.980Z,6.50
2023-02-26T16:04:44.001Z,6.60
2023-02-26T16:07:12.493Z,6.70
2023-02-26T16:09:50.078Z,6.70
2023-02-26T16:12:20.298Z,6.70
2023-02-26T16:15:15.691Z,6.50
2023-02-26T16:17:49.476Z,6.50
2023-02-26T16:20:20.378Z,6.60
2023-02-26T16:23:14.967Z,6.50
2023-02-26T16:25:56.628Z,6.50
2023-02-26T16:28:31.853Z,6.70
2023-02-26T16:31:01.152Z,6.70
2023-02-26T16:33:31.719Z,6.70
2023-02-26T16:36:09.832Z,6.60
2023-02-26T16:38:51.463Z,6.50
2023-02-26T16:41:23.540Z,6.60
2023-02-26T16:43:57.667Z,6.60
2023-02-26T16:46:42.807Z,6.50
2023-02-26T16:49:24.635Z,6.40
2023-02-26T16:51:52.848Z,6.50
2023-02-26T16:54:19.563Z,6.50
2023-02-26T16:56:49.466Z,6.60
2023-02-26T16:59:22.417Z,6.40
2023-02-26T17:01:54.056Z,6.30
2023-02-26T17:04:25.260Z,6.50
2023-02-26T17:06:52.708Z,6.40
2023-02-26T17:09:38.723Z,6.40
2023-02-26T17:12:05.558Z,6.40
2023-02-26T17:14:40.543Z,6.30
2023-02-26T17:17:07.372Z,6.30
2023-02-26T17:19:34.290Z,6.40
2023-02-26T17:22:01.837Z,6.50
2023-02-26T17:24:34.769Z,6.80
2023-02-26T17:27:03.506Z,6.80
2023-02-26T17:29:37.353Z,6.70
2023-02-26T17:32:18.168Z,6.90
2023-02-26T17:34:45.033Z,6.90
2023-02-26T17:37:16.061Z,6.90
2023-02-26T17:39:43.771Z,6.90
2023-02-26T17:42:16.405Z,6.80
2023-02-26T17:44:43.326Z,6.70
2023-02-26T17:47:30.383Z,6.70
2023-02-26T17:49:57.568Z,6.70
2023-02-26T17:52:24.398Z,6.70
2023-02-26T17:54:51.150Z,6.80
2023-02-26T17:57:20.421Z,6.80
2023-02-26T17:59:48.609Z,6.80
2023-02-26T18:02:22.132Z,6.70
2023-02-26T18:04:49.385Z,6.60
2023-02-26T18:07:17.777Z,6.60
2023-02-26T18:09:46.347Z,6.70
2023-02-26T18:12:21.616Z,6.70
2023-02-26T18:14:49.116Z,6.70
2023-02-26T18:17:20.772Z,6.60
2023-02-26T18:19:49.484Z,6.60
2023-02-26T18:22:18.882Z,6.60
2023-02-26T18:24:46.123Z,6.60
2023-02-26T18:27:19.344Z,6.50
2023-02-26T18:29:46.423Z,6.50
2023-02-26T18:32:22.689Z,6.60
2023-02-26T18:34:51.155Z,6.50
2023-02-26T18:37:22.329Z,6.30
2023-02-26T18:39:49.260Z,6.20
2023-02-26T18:42:21.784Z,6.30
2023-02-26T18:44:49.693Z,6.30
2023-02-26T18:47:18.758Z,6.20
2023-02-26T18:49:46.462Z,6.20
2023-02-26T18:52:13.861Z,6.20
2023-02-26T18:54:41.442Z,6.30
2023-02-26T18:57:09.442Z,6.30
2023-02-26T18:59:36.395Z,6.20
2023-02-26T19:02:05.269Z,6.10
2023-02-26T19:04:32.372Z,6.00
2023-02-26T19:06:59.337Z,6.10
2023-02-26T19:09:28.700Z,6.00
2023-02-26T19:11:57.113Z,6.00
2023-02-26T19:14:24.962Z,5.90
2023-02-26T19:16:51.893Z,6.00
2023-02-26T19:19:18.903Z,5.90
2023-02-26T19:21:45.650Z,5.80
2023-02-26T19:24:13.479Z,5.70
2023-02-26T19:26:41.357Z,5.70
2023-02-26T19:29:10.066Z,5.90
2023-02-26T19:31:36.875Z,5.80
2023-02-26T19:34:04.350Z,5.70
2023-02-26T19:36:34.047Z,5.70
2023-02-26T19:39:02.704Z,5.70
2023-02-26T19:41:29.945Z,5.60
2023-02-26T19:43:57.218Z,5.60
2023-02-26T19:46:24.225Z,5.60
2023-02-26T19:48:51.283Z,5.50
2023-02-26T19:51:18.737Z,5.70
2023-02-26T19:53:45.672Z,5.70
2023-02-26T19:56:12.661Z,5.70
2023-02-26T19:58:39.612Z,5.70
2023-02-26T20:01:06.848Z,5.70
2023-02-26T20:03:34.018Z,5.80
2023-02-26T20:06:01.285Z,5.70
2023-02-26T20:08:29.684Z,5.60
2023-02-26T20:10:57.963Z,5.50
2023-02-26T20:13:29.766Z,5.50
2023-02-26T20:15:59.786Z,5.50
2023-02-26T20:18:31.014Z,5.50
2023-02-26T20:20:59.317Z,5.50
2023-02-26T20:23:26.839Z,5.50
2023-02-26T20:25:57.810Z,5.60
2023-02-26T20:28:25.382Z,5.60
2023-02-26T20:30:52.676Z,5.50
2023-02-26T20:33:21.063Z,5.60
2023-02-26T20:35:48.970Z,5.60
2023-02-26T20:38:17.565Z,5.60
2023-02-26T20:40:45.930Z,5.60
2023-02-26T20:43:13.812Z,5.60
2023-02-26T20:45:41.780Z,5.80
2023-02-26T20:48:09.970Z,5.70
2023-02-26T20:50:37.569Z,5.70
2023-02-26T20:53:05.765Z,5.60
2023-02-26T20:55:32.809Z,5.50
2023-02-26T20:57:59.680Z,5.40
2023-02-26T21:00:26.924Z,5.50
2023-02-26T21:02:54.059Z,5.60
2023-02-26T21:05:21.147Z,5.50
2023-02-26T21:07:48.188Z,5.40
2023-02-26T21:10:18.140Z,5.30
2023-02-26T21:12:45.447Z,5.30
2023-02-26T21:15:13.409Z,5.20
2023-02-26T21:17:42.007Z,5.30
2023-02-26T21:20:12.157Z,5.30
2023-02-26T21:22:39.778Z,5.20
2023-02-26T21:25:07.725Z,5.20
2023-02-26T21:27:37.167Z,5.20
2023-02-26T21:30:08.076Z,5.20
2023-02-26T21:32:35.052Z,5.10
2023-02-26T21:35:01.949Z,5.10
2023-02-26T21:37:29.361Z,5.10
2023-02-26T21:39:56.344Z,5.20
2023-02-26T21:42:23.519Z,5.30
2023-02-26T21:44:50.518Z,5.30
2023-02-26T21:47:17.802Z,5.30
2023-02-26T21:49:44.584Z,5.20
2023-02-26T21:52:11.854Z,5.20
2023-02-26T21:54:39.234Z,5.20
2023-02-26T21:57:06.197Z,5.10
2023-02-26T21:59:33.806Z,5.10
2023-02-26T22:02:00.653Z,5.20
2023-02-26T22:04:27.699Z,5.10
2023-02-26T22:06:54.939Z,5.20
2023-02-26T22:09:21.896Z,5.30
2023-02-26T22:11:48.757Z,5.30
2023-02-26T22:14:15.492Z,5.20
2023-02-26T22:16:42.343Z,5.30
2023-02-26T22:19:09.187Z,5.40
2023-02-26T22:21:36.113Z,5.40
2023-02-26T22:24:03.775Z,5.50
2023-02-26T22:26:30.832Z,5.50
2023-02-26T22:28:59.741Z,5.50
2023-02-26T22:31:31.841Z,5.50
2023-02-26T22:33:59.386Z,5.50
2023-02-26T22:36:27.554Z,5.60
2023-02-26T22:38:54.526Z,5.60
2023-02-26T22:41:21.284Z,5.60
2023-02-26T22:43:48.274Z,5.70
2023-02-26T22:46:17.082Z,5.60
2023-02-26T22:48:44.255Z,5.60
2023-02-26T22:51:11.045Z,5.60
2023-02-26T22:53:38.006Z,5.60
2023-02-26T22:56:04.909Z,5.60
2023-02-26T22:58:31.653Z,5.70
2023-02-26T23:01:02.892Z,5.70
2023-02-26T23:03:30.010Z,5.70
2023-02-26T23:05:57.302Z,5.70
2023-02-26T23:08:24.424Z,5.60
2023-02-26T23:10:55.027Z,5.60
2023-02-26T23:13:22.045Z,5.60
2023-02-26T23:15:48.927Z,5.60
2023-02-26T23:18:15.700Z,5.60
2023-02-26T23:20:42.569Z,5.60
2023-02-26T23:23:09.386Z,5.70
2023-02-26T23:25:36.126Z,5.70
2023-02-26T23:28:03.093Z,5.90
2023-02-26T23:30:29.927Z,5.60
2023-02-26T23:32:56.817Z,5.60
2023-02-26T23:35:23.548Z,5.70
2023-02-26T23:37:50.476Z,5.70
2023-02-26T23:40:17.511Z,5.70
2023-02-26T23:42:44.874Z,5.70
2023-02-26T23:45:12.503Z,5.80
2023-02-26T23:47:40.153Z,5.60
2023-02-26T23:50:08.063Z,5.60
2023-02-26T23:52:35.615Z,5.70
2023-02-26T23:55:04.067Z,5.70
2023-02-26T23:57:31.235Z,5.60
2023-02-26T23:59:58.080Z,5.60
